sensor_id;sensor_type;location;lat;lon;timestamp;P1;durP1;ratioP1;P2;durP2;ratioP2
54919;SDS011;63804;53.120;8.764;2023-03-14T00:01:29;11.15;;;3.85;;
54919;SDS011;63804;53.120;8.764;2023-03-14T00:03:55;14.77;;;3.40;;
54919;SDS011;63804;53.120;8.764;2023-03-14T00:06:20;11.13;;;3.22;;
54919;SDS011;63804;53.120;8.764;2023-03-14T00:08:47;10.13;;;2.88;;
54919;SDS011;63804;53.120;8.764;2023-03-14T00:11:13;12.32;;;3.22;;
54919;SDS011;63804;53.120;8.764;2023-03-14T00:13:41;10.70;;;3.15;;
54919;SDS011;63804;53.120;8.764;2023-03-14T00:16:10;10.00;;;3.50;;
54919;SDS011;63804;53.120;8.764;2023-03-14T00:18:37;10.80;;;3.13;;
54919;SDS011;63804;53.120;8.764;2023-03-14T00:21:04;12.27;;;3.58;;
54919;SDS011;63804;53.120;8.764;2023-03-14T00:23:31;9.70;;;3.20;;
54919;SDS011;63804;53.120;8.764;2023-03-14T00:25:59;11.30;;;2.75;;
54919;SDS011;63804;53.120;8.764;2023-03-14T00:28:25;9.70;;;3.00;;
54919;SDS011;63804;53.120;8.764;2023-03-14T00:30:51;12.02;;;3.13;;
54919;SDS011;63804;53.120;8.764;2023-03-14T00:33:16;10.57;;;3.10;;
54919;SDS011;63804;53.120;8.764;2023-03-14T00:35:42;13.02;;;3.20;;
54919;SDS011;63804;53.120;8.764;2023-03-14T00:38:07;12.73;;;3.33;;
54919;SDS011;63804;53.120;8.764;2023-03-14T00:40:33;10.70;;;2.92;;
54919;SDS011;63804;53.120;8.764;2023-03-14T00:42:58;8.68;;;3.00;;
54919;SDS011;63804;53.120;8.764;2023-03-14T00:45:24;15.93;;;3.40;;
54919;SDS011;63804;53.120;8.764;2023-03-14T00:47:49;8.63;;;2.38;;
54919;SDS011;63804;53.120;8.764;2023-03-14T00:50:15;12.57;;;3.10;;
54919;SDS011;63804;53.120;8.764;2023-03-14T00:52:40;10.43;;;3.17;;
54919;SDS011;63804;53.120;8.764;2023-03-14T00:55:06;9.38;;;2.90;;
54919;SDS011;63804;53.120;8.764;2023-03-14T00:57:32;10.32;;;3.58;;
54919;SDS011;63804;53.120;8.764;2023-03-14T00:59:57;12.73;;;3.33;;
54919;SDS011;63804;53.120;8.764;2023-03-14T01:02:22;9.75;;;3.58;;
54919;SDS011;63804;53.120;8.764;2023-03-14T01:04:48;13.88;;;3.88;;
54919;SDS011;63804;53.120;8.764;2023-03-14T01:07:14;11.20;;;3.15;;
54919;SDS011;63804;53.120;8.764;2023-03-14T01:09:40;9.85;;;3.67;;
54919;SDS011;63804;53.120;8.764;2023-03-14T01:12:05;9.57;;;3.17;;
54919;SDS011;63804;53.120;8.764;2023-03-14T01:14:31;11.02;;;3.80;;
54919;SDS011;63804;53.120;8.764;2023-03-14T01:16:56;10.88;;;3.40;;
54919;SDS011;63804;53.120;8.764;2023-03-14T01:19:26;14.13;;;3.83;;
54919;SDS011;63804;53.120;8.764;2023-03-14T01:21:53;10.65;;;3.83;;
54919;SDS011;63804;53.120;8.764;2023-03-14T01:24:18;9.10;;;3.75;;
54919;SDS011;63804;53.120;8.764;2023-03-14T01:26:45;12.32;;;4.43;;
54919;SDS011;63804;53.120;8.764;2023-03-14T01:29:11;10.75;;;3.83;;
54919;SDS011;63804;53.120;8.764;2023-03-14T01:31:37;11.90;;;4.18;;
54919;SDS011;63804;53.120;8.764;2023-03-14T01:34:02;10.80;;;4.50;;
54919;SDS011;63804;53.120;8.764;2023-03-14T01:36:28;12.18;;;4.82;;
54919;SDS011;63804;53.120;8.764;2023-03-14T01:38:53;10.77;;;4.07;;
54919;SDS011;63804;53.120;8.764;2023-03-14T01:41:20;12.57;;;4.63;;
54919;SDS011;63804;53.120;8.764;2023-03-14T01:43:48;11.00;;;4.53;;
54919;SDS011;63804;53.120;8.764;2023-03-14T01:46:28;13.95;;;4.45;;
54919;SDS011;63804;53.120;8.764;2023-03-14T01:48:59;10.23;;;4.05;;
54919;SDS011;63804;53.120;8.764;2023-03-14T01:59:38;14.48;;;4.70;;
54919;SDS011;63804;53.120;8.764;2023-03-14T02:02:09;14.55;;;4.63;;
54919;SDS011;63804;53.120;8.764;2023-03-14T02:04:37;10.95;;;4.65;;
54919;SDS011;63804;53.120;8.764;2023-03-14T02:07:20;12.15;;;4.63;;
54919;SDS011;63804;53.120;8.764;2023-03-14T02:09:50;11.88;;;4.22;;
54919;SDS011;63804;53.120;8.764;2023-03-14T02:12:17;9.23;;;4.50;;
54919;SDS011;63804;53.120;8.764;2023-03-14T02:14:45;10.48;;;4.30;;
54919;SDS011;63804;53.120;8.764;2023-03-14T02:17:13;12.75;;;5.00;;
54919;SDS011;63804;53.120;8.764;2023-03-14T02:19:50;11.45;;;4.45;;
54919;SDS011;63804;53.120;8.764;2023-03-14T02:22:18;11.93;;;4.70;;
54919;SDS011;63804;53.120;8.764;2023-03-14T02:27:28;12.38;;;4.78;;
54919;SDS011;63804;53.120;8.764;2023-03-14T02:32:26;11.85;;;4.70;;
54919;SDS011;63804;53.120;8.764;2023-03-14T02:34:55;13.27;;;4.47;;
54919;SDS011;63804;53.120;8.764;2023-03-14T02:37:25;12.68;;;4.38;;
54919;SDS011;63804;53.120;8.764;2023-03-14T02:39:58;10.07;;;4.30;;
54919;SDS011;63804;53.120;8.764;2023-03-14T02:42:23;12.38;;;4.10;;
54919;SDS011;63804;53.120;8.764;2023-03-14T02:44:59;11.38;;;5.22;;
54919;SDS011;63804;53.120;8.764;2023-03-14T02:47:35;15.40;;;4.63;;
54919;SDS011;63804;53.120;8.764;2023-03-14T02:50:08;11.32;;;3.78;;
54919;SDS011;63804;53.120;8.764;2023-03-14T02:52:37;11.13;;;3.95;;
54919;SDS011;63804;53.120;8.764;2023-03-14T02:55:03;14.32;;;4.13;;
54919;SDS011;63804;53.120;8.764;2023-03-14T02:57:29;11.57;;;4.10;;
54919;SDS011;63804;53.120;8.764;2023-03-14T02:59:58;11.23;;;3.90;;
54919;SDS011;63804;53.120;8.764;2023-03-14T03:02:24;14.63;;;4.28;;
54919;SDS011;63804;53.120;8.764;2023-03-14T03:04:50;11.98;;;3.67;;
54919;SDS011;63804;53.120;8.764;2023-03-14T03:07:15;8.93;;;3.30;;
54919;SDS011;63804;53.120;8.764;2023-03-14T03:09:41;10.55;;;3.20;;
54919;SDS011;63804;53.120;8.764;2023-03-14T03:12:06;11.50;;;3.47;;
54919;SDS011;63804;53.120;8.764;2023-03-14T03:14:32;12.98;;;3.58;;
54919;SDS011;63804;53.120;8.764;2023-03-14T03:16:57;12.73;;;3.58;;
54919;SDS011;63804;53.120;8.764;2023-03-14T03:19:23;9.32;;;3.70;;
54919;SDS011;63804;53.120;8.764;2023-03-14T03:21:48;12.63;;;3.13;;
54919;SDS011;63804;53.120;8.764;2023-03-14T03:24:14;13.38;;;3.50;;
54919;SDS011;63804;53.120;8.764;2023-03-14T03:26:39;10.82;;;3.25;;
54919;SDS011;63804;53.120;8.764;2023-03-14T03:29:04;10.15;;;3.10;;
54919;SDS011;63804;53.120;8.764;2023-03-14T03:31:30;11.13;;;3.30;;
54919;SDS011;63804;53.120;8.764;2023-03-14T03:33:56;8.90;;;2.72;;
54919;SDS011;63804;53.120;8.764;2023-03-14T03:36:25;8.65;;;2.70;;
54919;SDS011;63804;53.120;8.764;2023-03-14T03:38:51;11.93;;;2.97;;
54919;SDS011;63804;53.120;8.764;2023-03-14T03:41:17;10.10;;;3.28;;
54919;SDS011;63804;53.120;8.764;2023-03-14T03:43:49;9.93;;;2.92;;
54919;SDS011;63804;53.120;8.764;2023-03-14T03:46:14;11.32;;;3.47;;
54919;SDS011;63804;53.120;8.764;2023-03-14T03:48:40;7.00;;;2.40;;
54919;SDS011;63804;53.120;8.764;2023-03-14T03:51:06;10.25;;;2.40;;
54919;SDS011;63804;53.120;8.764;2023-03-14T03:53:31;6.32;;;1.20;;
54919;SDS011;63804;53.120;8.764;2023-03-14T03:55:57;2.53;;;1.00;;
54919;SDS011;63804;53.120;8.764;2023-03-14T03:58:22;4.75;;;1.10;;
54919;SDS011;63804;53.120;8.764;2023-03-14T04:00:48;3.65;;;0.80;;
54919;SDS011;63804;53.120;8.764;2023-03-14T04:03:13;3.22;;;0.90;;
54919;SDS011;63804;53.120;8.764;2023-03-14T04:05:39;2.03;;;0.80;;
54919;SDS011;63804;53.120;8.764;2023-03-14T04:08:04;4.70;;;1.00;;
54919;SDS011;63804;53.120;8.764;2023-03-14T04:10:33;6.05;;;1.30;;
54919;SDS011;63804;53.120;8.764;2023-03-14T04:12:59;3.08;;;1.25;;
54919;SDS011;63804;53.120;8.764;2023-03-14T04:15:24;7.80;;;1.60;;
54919;SDS011;63804;53.120;8.764;2023-03-14T04:17:50;5.07;;;1.90;;
54919;SDS011;63804;53.120;8.764;2023-03-14T04:20:15;8.85;;;2.47;;
54919;SDS011;63804;53.120;8.764;2023-03-14T04:22:41;8.25;;;2.10;;
54919;SDS011;63804;53.120;8.764;2023-03-14T04:25:06;7.43;;;2.67;;
54919;SDS011;63804;53.120;8.764;2023-03-14T04:27:32;10.23;;;2.55;;
54919;SDS011;63804;53.120;8.764;2023-03-14T04:29:58;11.18;;;2.70;;
54919;SDS011;63804;53.120;8.764;2023-03-14T04:32:23;8.50;;;2.63;;
54919;SDS011;63804;53.120;8.764;2023-03-14T04:34:49;10.00;;;3.08;;
54919;SDS011;63804;53.120;8.764;2023-03-14T04:37:14;9.80;;;2.90;;
54919;SDS011;63804;53.120;8.764;2023-03-14T04:39:40;11.07;;;2.70;;
54919;SDS011;63804;53.120;8.764;2023-03-14T04:42:05;8.18;;;2.40;;
54919;SDS011;63804;53.120;8.764;2023-03-14T04:44:31;7.93;;;2.22;;
54919;SDS011;63804;53.120;8.764;2023-03-14T04:46:56;6.97;;;2.00;;
54919;SDS011;63804;53.120;8.764;2023-03-14T04:49:22;10.85;;;2.83;;
54919;SDS011;63804;53.120;8.764;2023-03-14T04:51:48;8.90;;;2.40;;
54919;SDS011;63804;53.120;8.764;2023-03-14T04:54:16;11.85;;;3.17;;
54919;SDS011;63804;53.120;8.764;2023-03-14T04:56:42;10.45;;;2.63;;
54919;SDS011;63804;53.120;8.764;2023-03-14T04:59:07;10.43;;;2.63;;
54919;SDS011;63804;53.120;8.764;2023-03-14T05:01:33;9.02;;;2.28;;
54919;SDS011;63804;53.120;8.764;2023-03-14T05:03:59;7.28;;;2.58;;
54919;SDS011;63804;53.120;8.764;2023-03-14T05:06:24;7.05;;;2.20;;
54919;SDS011;63804;53.120;8.764;2023-03-14T05:08:50;3.47;;;1.75;;
54919;SDS011;63804;53.120;8.764;2023-03-14T05:11:16;6.60;;;2.00;;
54919;SDS011;63804;53.120;8.764;2023-03-14T05:13:41;5.88;;;1.90;;
54919;SDS011;63804;53.120;8.764;2023-03-14T05:16:07;6.93;;;2.10;;
54919;SDS011;63804;53.120;8.764;2023-03-14T05:18:35;7.60;;;1.90;;
54919;SDS011;63804;53.120;8.764;2023-03-14T05:21:00;10.93;;;2.10;;
54919;SDS011;63804;53.120;8.764;2023-03-14T05:23:32;11.02;;;2.28;;
54919;SDS011;63804;53.120;8.764;2023-03-14T05:25:57;6.93;;;1.70;;
54919;SDS011;63804;53.120;8.764;2023-03-14T05:28:23;7.95;;;1.92;;
54919;SDS011;63804;53.120;8.764;2023-03-14T05:30:48;7.63;;;1.77;;
54919;SDS011;63804;53.120;8.764;2023-03-14T05:33:14;9.57;;;2.08;;
54919;SDS011;63804;53.120;8.764;2023-03-14T05:35:39;8.73;;;1.90;;
54919;SDS011;63804;53.120;8.764;2023-03-14T05:38:05;8.48;;;1.88;;
54919;SDS011;63804;53.120;8.764;2023-03-14T05:40:30;7.43;;;1.70;;
54919;SDS011;63804;53.120;8.764;2023-03-14T05:42:55;8.23;;;1.70;;
54919;SDS011;63804;53.120;8.764;2023-03-14T05:45:21;8.02;;;2.00;;
54919;SDS011;63804;53.120;8.764;2023-03-14T05:47:46;7.78;;;2.00;;
54919;SDS011;63804;53.120;8.764;2023-03-14T05:50:12;8.13;;;1.65;;
54919;SDS011;63804;53.120;8.764;2023-03-14T05:52:37;8.95;;;1.52;;
54919;SDS011;63804;53.120;8.764;2023-03-14T05:55:03;7.72;;;1.90;;
54919;SDS011;63804;53.120;8.764;2023-03-14T05:57:29;7.93;;;1.80;;
54919;SDS011;63804;53.120;8.764;2023-03-14T05:59:55;7.68;;;1.73;;
54919;SDS011;63804;53.120;8.764;2023-03-14T06:02:20;6.88;;;1.52;;
54919;SDS011;63804;53.120;8.764;2023-03-14T06:04:46;5.47;;;1.40;;
54919;SDS011;63804;53.120;8.764;2023-03-14T06:07:11;4.90;;;1.50;;
54919;SDS011;63804;53.120;8.764;2023-03-14T06:09:36;6.78;;;1.42;;
54919;SDS011;63804;53.120;8.764;2023-03-14T06:12:03;6.68;;;1.40;;
54919;SDS011;63804;53.120;8.764;2023-03-14T06:14:28;6.28;;;1.55;;
54919;SDS011;63804;53.120;8.764;2023-03-14T06:16:54;7.00;;;1.30;;
54919;SDS011;63804;53.120;8.764;2023-03-14T06:19:19;6.50;;;1.48;;
54919;SDS011;63804;53.120;8.764;2023-03-14T06:21:45;6.55;;;1.60;;
54919;SDS011;63804;53.120;8.764;2023-03-14T06:24:10;5.60;;;1.40;;
54919;SDS011;63804;53.120;8.764;2023-03-14T06:26:36;9.23;;;1.63;;
54919;SDS011;63804;53.120;8.764;2023-03-14T06:29:01;7.20;;;1.83;;
54919;SDS011;63804;53.120;8.764;2023-03-14T06:31:29;6.38;;;1.30;;
54919;SDS011;63804;53.120;8.764;2023-03-14T06:33:55;7.43;;;1.48;;
54919;SDS011;63804;53.120;8.764;2023-03-14T06:36:21;7.65;;;1.40;;
54919;SDS011;63804;53.120;8.764;2023-03-14T06:38:47;5.35;;;1.52;;
54919;SDS011;63804;53.120;8.764;2023-03-14T06:41:12;5.40;;;1.67;;
54919;SDS011;63804;53.120;8.764;2023-03-14T06:43:37;7.18;;;1.67;;
54919;SDS011;63804;53.120;8.764;2023-03-14T06:46:03;4.68;;;1.38;;
54919;SDS011;63804;53.120;8.764;2023-03-14T06:48:29;5.85;;;1.33;;
54919;SDS011;63804;53.120;8.764;2023-03-14T06:50:54;9.10;;;1.60;;
54919;SDS011;63804;53.120;8.764;2023-03-14T06:53:20;6.53;;;1.55;;
54919;SDS011;63804;53.120;8.764;2023-03-14T06:55:45;5.00;;;1.50;;
54919;SDS011;63804;53.120;8.764;2023-03-14T06:58:11;8.50;;;1.65;;
54919;SDS011;63804;53.120;8.764;2023-03-14T07:00:36;6.55;;;1.48;;
54919;SDS011;63804;53.120;8.764;2023-03-14T07:03:02;7.45;;;1.67;;
54919;SDS011;63804;53.120;8.764;2023-03-14T07:05:27;4.32;;;1.40;;
54919;SDS011;63804;53.120;8.764;2023-03-14T07:07:53;9.52;;;1.95;;
54919;SDS011;63804;53.120;8.764;2023-03-14T07:10:19;8.68;;;1.80;;
54919;SDS011;63804;53.120;8.764;2023-03-14T07:12:44;7.20;;;1.90;;
54919;SDS011;63804;53.120;8.764;2023-03-14T07:15:10;9.05;;;2.15;;
54919;SDS011;63804;53.120;8.764;2023-03-14T07:17:39;8.00;;;2.28;;
54919;SDS011;63804;53.120;8.764;2023-03-14T07:20:04;8.40;;;2.10;;
54919;SDS011;63804;53.120;8.764;2023-03-14T07:22:30;7.45;;;1.95;;
54919;SDS011;63804;53.120;8.764;2023-03-14T07:24:56;8.63;;;2.28;;
54919;SDS011;63804;53.120;8.764;2023-03-14T07:27:21;10.38;;;2.03;;
54919;SDS011;63804;53.120;8.764;2023-03-14T07:29:47;9.52;;;2.20;;
54919;SDS011;63804;53.120;8.764;2023-03-14T07:32:12;10.50;;;2.38;;
54919;SDS011;63804;53.120;8.764;2023-03-14T07:34:42;10.18;;;2.35;;
54919;SDS011;63804;53.120;8.764;2023-03-14T07:37:08;9.98;;;2.05;;
54919;SDS011;63804;53.120;8.764;2023-03-14T07:39:33;9.93;;;2.10;;
54919;SDS011;63804;53.120;8.764;2023-03-14T07:41:59;12.10;;;2.30;;
54919;SDS011;63804;53.120;8.764;2023-03-14T07:44:25;11.05;;;2.63;;
54919;SDS011;63804;53.120;8.764;2023-03-14T07:46:50;10.95;;;2.60;;
54919;SDS011;63804;53.120;8.764;2023-03-14T07:49:16;11.80;;;2.03;;
54919;SDS011;63804;53.120;8.764;2023-03-14T07:51:41;7.68;;;2.00;;
54919;SDS011;63804;53.120;8.764;2023-03-14T07:54:09;13.13;;;2.35;;
54919;SDS011;63804;53.120;8.764;2023-03-14T07:56:37;8.48;;;2.38;;
54919;SDS011;63804;53.120;8.764;2023-03-14T07:59:02;11.65;;;2.75;;
54919;SDS011;63804;53.120;8.764;2023-03-14T08:01:28;12.73;;;2.53;;
54919;SDS011;63804;53.120;8.764;2023-03-14T08:03:54;9.73;;;2.45;;
54919;SDS011;63804;53.120;8.764;2023-03-14T08:06:20;9.95;;;1.83;;
54919;SDS011;63804;53.120;8.764;2023-03-14T08:08:45;9.27;;;2.08;;
54919;SDS011;63804;53.120;8.764;2023-03-14T08:11:10;9.48;;;2.03;;
54919;SDS011;63804;53.120;8.764;2023-03-14T08:13:36;6.38;;;1.95;;
54919;SDS011;63804;53.120;8.764;2023-03-14T08:16:03;10.80;;;2.08;;
54919;SDS011;63804;53.120;8.764;2023-03-14T08:18:29;9.63;;;2.00;;
54919;SDS011;63804;53.120;8.764;2023-03-14T08:20:55;8.25;;;2.08;;
54919;SDS011;63804;53.120;8.764;2023-03-14T08:23:21;10.50;;;2.00;;
54919;SDS011;63804;53.120;8.764;2023-03-14T08:25:48;7.05;;;1.83;;
54919;SDS011;63804;53.120;8.764;2023-03-14T08:28:15;10.07;;;2.20;;
54919;SDS011;63804;53.120;8.764;2023-03-14T08:30:40;9.93;;;2.17;;
54919;SDS011;63804;53.120;8.764;2023-03-14T08:33:06;6.75;;;1.73;;
54919;SDS011;63804;53.120;8.764;2023-03-14T08:35:31;7.97;;;1.85;;
54919;SDS011;63804;53.120;8.764;2023-03-14T08:37:57;10.15;;;1.80;;
54919;SDS011;63804;53.120;8.764;2023-03-14T08:40:22;9.43;;;1.90;;
54919;SDS011;63804;53.120;8.764;2023-03-14T08:42:48;8.13;;;1.80;;
54919;SDS011;63804;53.120;8.764;2023-03-14T08:45:14;7.90;;;1.95;;
54919;SDS011;63804;53.120;8.764;2023-03-14T08:47:42;11.55;;;2.50;;
54919;SDS011;63804;53.120;8.764;2023-03-14T08:50:09;6.70;;;1.67;;
54919;SDS011;63804;53.120;8.764;2023-03-14T08:52:35;9.07;;;2.20;;
54919;SDS011;63804;53.120;8.764;2023-03-14T08:55:03;5.40;;;1.73;;
54919;SDS011;63804;53.120;8.764;2023-03-14T08:57:29;8.95;;;1.90;;
54919;SDS011;63804;53.120;8.764;2023-03-14T08:59:55;7.22;;;2.00;;
54919;SDS011;63804;53.120;8.764;2023-03-14T09:02:21;8.35;;;2.30;;
54919;SDS011;63804;53.120;8.764;2023-03-14T09:04:47;9.45;;;2.30;;
54919;SDS011;63804;53.120;8.764;2023-03-14T09:07:14;11.63;;;2.53;;
54919;SDS011;63804;53.120;8.764;2023-03-14T09:09:40;5.47;;;1.25;;
54919;SDS011;63804;53.120;8.764;2023-03-14T09:12:05;2.53;;;0.65;;
54919;SDS011;63804;53.120;8.764;2023-03-14T09:14:31;3.50;;;0.80;;
54919;SDS011;63804;53.120;8.764;2023-03-14T09:16:57;3.25;;;0.77;;
54919;SDS011;63804;53.120;8.764;2023-03-14T09:19:23;4.18;;;0.73;;
54919;SDS011;63804;53.120;8.764;2023-03-14T09:21:48;4.82;;;0.98;;
54919;SDS011;63804;53.120;8.764;2023-03-14T09:24:14;7.38;;;1.50;;
54919;SDS011;63804;53.120;8.764;2023-03-14T09:26:40;5.50;;;0.77;;
54919;SDS011;63804;53.120;8.764;2023-03-14T09:29:05;5.85;;;0.90;;
54919;SDS011;63804;53.120;8.764;2023-03-14T09:31:31;5.07;;;1.00;;
54919;SDS011;63804;53.120;8.764;2023-03-14T09:33:56;5.75;;;0.70;;
54919;SDS011;63804;53.120;8.764;2023-03-14T09:36:22;5.72;;;0.95;;
54919;SDS011;63804;53.120;8.764;2023-03-14T09:38:47;3.58;;;0.70;;
54919;SDS011;63804;53.120;8.764;2023-03-14T09:41:17;4.00;;;0.70;;
54919;SDS011;63804;53.120;8.764;2023-03-14T09:43:49;3.70;;;0.50;;
54919;SDS011;63804;53.120;8.764;2023-03-14T09:46:25;2.60;;;0.75;;
54919;SDS011;63804;53.120;8.764;2023-03-14T09:48:52;2.63;;;0.50;;
54919;SDS011;63804;53.120;8.764;2023-03-14T09:51:18;3.00;;;0.73;;
54919;SDS011;63804;53.120;8.764;2023-03-14T09:53:47;2.63;;;0.70;;
54919;SDS011;63804;53.120;8.764;2023-03-14T09:56:16;1.65;;;0.70;;
54919;SDS011;63804;53.120;8.764;2023-03-14T09:58:57;1.02;;;0.43;;
54919;SDS011;63804;53.120;8.764;2023-03-14T10:01:25;1.45;;;0.22;;
54919;SDS011;63804;53.120;8.764;2023-03-14T10:03:54;3.25;;;0.40;;
54919;SDS011;63804;53.120;8.764;2023-03-14T10:06:22;0.95;;;0.32;;
54919;SDS011;63804;53.120;8.764;2023-03-14T10:08:51;0.45;;;0.20;;
54919;SDS011;63804;53.120;8.764;2023-03-14T10:11:18;1.55;;;0.20;;
54919;SDS011;63804;53.120;8.764;2023-03-14T10:14:02;1.02;;;0.20;;
54919;SDS011;63804;53.120;8.764;2023-03-14T10:16:45;2.50;;;0.35;;
54919;SDS011;63804;53.120;8.764;2023-03-14T10:19:14;1.25;;;0.40;;
54919;SDS011;63804;53.120;8.764;2023-03-14T10:21:43;0.68;;;0.20;;
54919;SDS011;63804;53.120;8.764;2023-03-14T10:27:17;1.90;;;0.30;;
54919;SDS011;63804;53.120;8.764;2023-03-14T10:29:53;2.63;;;0.35;;
54919;SDS011;63804;53.120;8.764;2023-03-14T10:32:27;2.40;;;0.40;;
54919;SDS011;63804;53.120;8.764;2023-03-14T10:35:11;1.25;;;0.30;;
54919;SDS011;63804;53.120;8.764;2023-03-14T10:37:58;2.20;;;0.40;;
54919;SDS011;63804;53.120;8.764;2023-03-14T10:40:33;1.92;;;0.47;;
54919;SDS011;63804;53.120;8.764;2023-03-14T10:43:06;1.08;;;0.47;;
54919;SDS011;63804;53.120;8.764;2023-03-14T10:45:39;2.83;;;0.60;;
54919;SDS011;63804;53.120;8.764;2023-03-14T10:50:32;3.22;;;0.70;;
54919;SDS011;63804;53.120;8.764;2023-03-14T10:53:00;4.30;;;0.90;;
54919;SDS011;63804;53.120;8.764;2023-03-14T10:55:41;4.03;;;0.82;;
54919;SDS011;63804;53.120;8.764;2023-03-14T10:58:29;5.70;;;1.13;;
54919;SDS011;63804;53.120;8.764;2023-03-14T11:03:29;2.75;;;0.80;;
54919;SDS011;63804;53.120;8.764;2023-03-14T11:06:00;5.30;;;0.85;;
54919;SDS011;63804;53.120;8.764;2023-03-14T11:08:48;5.70;;;0.95;;
54919;SDS011;63804;53.120;8.764;2023-03-14T11:11:23;3.92;;;0.80;;
54919;SDS011;63804;53.120;8.764;2023-03-14T11:14:00;6.70;;;1.13;;
54919;SDS011;63804;53.120;8.764;2023-03-14T11:16:34;4.72;;;0.73;;
54919;SDS011;63804;53.120;8.764;2023-03-14T11:27:42;9.90;;;1.80;;
54919;SDS011;63804;53.120;8.764;2023-03-14T11:33:37;9.07;;;1.58;;
54919;SDS011;63804;53.120;8.764;2023-03-14T11:36:08;8.25;;;1.58;;
54919;SDS011;63804;53.120;8.764;2023-03-14T11:38:40;9.38;;;1.77;;
54919;SDS011;63804;53.120;8.764;2023-03-14T11:41:14;10.50;;;1.55;;
54919;SDS011;63804;53.120;8.764;2023-03-14T11:43:46;10.45;;;2.30;;
54919;SDS011;63804;53.120;8.764;2023-03-14T11:46:17;13.32;;;1.90;;
54919;SDS011;63804;53.120;8.764;2023-03-14T11:49:06;10.35;;;1.70;;
54919;SDS011;63804;53.120;8.764;2023-03-14T11:51:40;10.38;;;2.00;;
54919;SDS011;63804;53.120;8.764;2023-03-14T11:54:20;10.82;;;1.85;;
54919;SDS011;63804;53.120;8.764;2023-03-14T11:57:03;13.18;;;2.33;;
54919;SDS011;63804;53.120;8.764;2023-03-14T12:02:33;11.55;;;2.50;;
54919;SDS011;63804;53.120;8.764;2023-03-14T12:13:35;17.92;;;3.45;;
54919;SDS011;63804;53.120;8.764;2023-03-14T12:19:13;12.43;;;2.63;;
54919;SDS011;63804;53.120;8.764;2023-03-14T12:24:31;15.52;;;3.08;;
54919;SDS011;63804;53.120;8.764;2023-03-14T12:27:01;15.77;;;2.78;;
54919;SDS011;63804;53.120;8.764;2023-03-14T12:29:28;15.43;;;2.85;;
54919;SDS011;63804;53.120;8.764;2023-03-14T12:37:02;16.30;;;3.28;;
54919;SDS011;63804;53.120;8.764;2023-03-14T12:39:53;20.27;;;3.10;;
54919;SDS011;63804;53.120;8.764;2023-03-14T12:45:14;15.02;;;3.03;;
54919;SDS011;63804;53.120;8.764;2023-03-14T12:48:03;18.52;;;3.13;;
54919;SDS011;63804;53.120;8.764;2023-03-14T12:50:53;13.45;;;2.45;;
54919;SDS011;63804;53.120;8.764;2023-03-14T13:01:27;13.52;;;2.20;;
54919;SDS011;63804;53.120;8.764;2023-03-14T13:03:54;11.95;;;2.50;;
54919;SDS011;63804;53.120;8.764;2023-03-14T13:14:45;10.23;;;2.50;;
54919;SDS011;63804;53.120;8.764;2023-03-14T13:17:14;11.73;;;2.15;;
54919;SDS011;63804;53.120;8.764;2023-03-14T13:19:44;12.73;;;2.53;;
54919;SDS011;63804;53.120;8.764;2023-03-14T13:22:21;13.63;;;2.40;;
54919;SDS011;63804;53.120;8.764;2023-03-14T13:24:50;12.20;;;2.13;;
54919;SDS011;63804;53.120;8.764;2023-03-14T13:27:24;12.05;;;2.30;;
54919;SDS011;63804;53.120;8.764;2023-03-14T13:29:50;12.15;;;2.05;;
54919;SDS011;63804;53.120;8.764;2023-03-14T13:32:20;14.57;;;2.28;;
54919;SDS011;63804;53.120;8.764;2023-03-14T13:34:50;11.55;;;2.13;;
54919;SDS011;63804;53.120;8.764;2023-03-14T13:37:17;11.30;;;2.00;;
54919;SDS011;63804;53.120;8.764;2023-03-14T13:39:49;13.00;;;2.38;;
54919;SDS011;63804;53.120;8.764;2023-03-14T13:42:29;12.45;;;2.15;;
54919;SDS011;63804;53.120;8.764;2023-03-14T13:44:55;16.02;;;2.50;;
54919;SDS011;63804;53.120;8.764;2023-03-14T13:47:23;12.60;;;2.00;;
54919;SDS011;63804;53.120;8.764;2023-03-14T13:49:50;14.10;;;2.22;;
54919;SDS011;63804;53.120;8.764;2023-03-14T13:52:36;11.88;;;2.15;;
54919;SDS011;63804;53.120;8.764;2023-03-14T13:55:04;9.35;;;1.65;;
54919;SDS011;63804;53.120;8.764;2023-03-14T13:57:44;8.00;;;1.73;;
54919;SDS011;63804;53.120;8.764;2023-03-14T14:00:19;10.25;;;2.10;;
54919;SDS011;63804;53.120;8.764;2023-03-14T14:02:55;9.30;;;1.80;;
54919;SDS011;63804;53.120;8.764;2023-03-14T14:05:25;10.55;;;1.85;;
54919;SDS011;63804;53.120;8.764;2023-03-14T14:07:53;7.32;;;1.50;;
54919;SDS011;63804;53.120;8.764;2023-03-14T14:10:19;12.32;;;2.08;;
54919;SDS011;63804;53.120;8.764;2023-03-14T14:12:56;8.75;;;1.60;;
54919;SDS011;63804;53.120;8.764;2023-03-14T14:15:27;8.02;;;1.77;;
54919;SDS011;63804;53.120;8.764;2023-03-14T14:17:56;8.00;;;1.85;;
54919;SDS011;63804;53.120;8.764;2023-03-14T14:23:20;9.60;;;2.08;;
54919;SDS011;63804;53.120;8.764;2023-03-14T14:25:53;8.32;;;2.13;;
54919;SDS011;63804;53.120;8.764;2023-03-14T14:28:25;12.18;;;1.65;;
54919;SDS011;63804;53.120;8.764;2023-03-14T14:33:30;11.68;;;2.00;;
54919;SDS011;63804;53.120;8.764;2023-03-14T14:36:04;11.77;;;2.08;;
54919;SDS011;63804;53.120;8.764;2023-03-14T14:38:30;10.18;;;1.95;;
54919;SDS011;63804;53.120;8.764;2023-03-14T14:40:58;10.05;;;1.98;;
54919;SDS011;63804;53.120;8.764;2023-03-14T14:43:26;8.32;;;1.88;;
54919;SDS011;63804;53.120;8.764;2023-03-14T14:45:54;13.43;;;2.10;;
54919;SDS011;63804;53.120;8.764;2023-03-14T14:48:25;9.02;;;1.40;;
54919;SDS011;63804;53.120;8.764;2023-03-14T14:50:57;10.30;;;1.80;;
54919;SDS011;63804;53.120;8.764;2023-03-14T14:53:34;11.10;;;1.60;;
54919;SDS011;63804;53.120;8.764;2023-03-14T14:56:16;10.23;;;1.75;;
54919;SDS011;63804;53.120;8.764;2023-03-14T14:58:55;9.80;;;1.67;;
54919;SDS011;63804;53.120;8.764;2023-03-14T15:01:24;8.55;;;1.65;;
54919;SDS011;63804;53.120;8.764;2023-03-14T15:03:55;7.57;;;1.67;;
54919;SDS011;63804;53.120;8.764;2023-03-14T15:06:21;8.55;;;1.92;;
54919;SDS011;63804;53.120;8.764;2023-03-14T15:08:49;6.45;;;1.67;;
54919;SDS011;63804;53.120;8.764;2023-03-14T15:11:18;13.15;;;2.25;;
54919;SDS011;63804;53.120;8.764;2023-03-14T15:13:47;9.77;;;1.80;;
54919;SDS011;63804;53.120;8.764;2023-03-14T15:16:13;10.95;;;1.73;;
54919;SDS011;63804;53.120;8.764;2023-03-14T15:18:41;8.60;;;1.70;;
54919;SDS011;63804;53.120;8.764;2023-03-14T15:21:10;10.25;;;1.90;;
54919;SDS011;63804;53.120;8.764;2023-03-14T15:23:36;8.32;;;2.08;;
54919;SDS011;63804;53.120;8.764;2023-03-14T15:26:02;11.07;;;1.98;;
54919;SDS011;63804;53.120;8.764;2023-03-14T15:28:28;8.88;;;1.40;;
54919;SDS011;63804;53.120;8.764;2023-03-14T15:30:55;9.20;;;2.00;;
54919;SDS011;63804;53.120;8.764;2023-03-14T15:33:23;10.85;;;1.88;;
54919;SDS011;63804;53.120;8.764;2023-03-14T15:35:50;10.95;;;1.88;;
54919;SDS011;63804;53.120;8.764;2023-03-14T15:38:17;14.43;;;2.33;;
54919;SDS011;63804;53.120;8.764;2023-03-14T15:40:48;10.82;;;2.20;;
54919;SDS011;63804;53.120;8.764;2023-03-14T15:43:14;10.00;;;2.05;;
54919;SDS011;63804;53.120;8.764;2023-03-14T15:45:40;9.50;;;2.10;;
54919;SDS011;63804;53.120;8.764;2023-03-14T15:48:06;11.23;;;1.83;;
54919;SDS011;63804;53.120;8.764;2023-03-14T15:50:39;8.32;;;1.70;;
54919;SDS011;63804;53.120;8.764;2023-03-14T15:53:04;7.03;;;1.75;;
54919;SDS011;63804;53.120;8.764;2023-03-14T15:55:30;8.13;;;1.90;;
54919;SDS011;63804;53.120;8.764;2023-03-14T15:57:55;7.25;;;1.60;;
54919;SDS011;63804;53.120;8.764;2023-03-14T16:00:21;8.90;;;1.73;;
54919;SDS011;63804;53.120;8.764;2023-03-14T16:02:47;8.32;;;1.70;;
54919;SDS011;63804;53.120;8.764;2023-03-14T16:05:13;9.32;;;1.73;;
54919;SDS011;63804;53.120;8.764;2023-03-14T16:07:39;11.05;;;1.80;;